createdAt,value
2024-05-09T00:04:28.281Z,13.1
2024-05-09T00:11:30.395Z,13.2
2024-05-09T00:18:32.215Z,12.9
2024-05-09T00:25:26.336Z,12.9
2024-05-09T00:32:58.999Z,12.9
2024-05-09T00:40:30.946Z,12.8
2024-05-09T00:47:37.703Z,13
2024-05-09T00:54:48.166Z,12.5
2024-05-09T01:01:45.720Z,12.7
2024-05-09T01:08:55.845Z,12.6
2024-05-09T01:15:57.751Z,12.3
2024-05-09T01:23:09.536Z,12.4
2024-05-09T01:30:01.007Z,12.3
2024-05-09T01:37:11.639Z,12.4
2024-05-09T01:44:10.404Z,12.2
2024-05-09T01:51:33.166Z,12.3
2024-05-09T01:58:26.513Z,12.1
2024-05-09T02:05:20.523Z,12.3
2024-05-09T02:12:18.635Z,12.1
2024-05-09T02:19:29.697Z,12.1
2024-05-09T02:26:49.841Z,12.1
2024-05-09T02:33:57.239Z,11.6
2024-05-09T02:40:55.512Z,11.6
2024-05-09T02:48:03.511Z,12
2024-05-09T02:55:03.830Z,11.6
2024-05-09T03:02:11.561Z,11.7
2024-05-09T03:09:24.592Z,11.6
2024-05-09T03:17:14.095Z,11.8
2024-05-09T03:24:12.419Z,11.7
2024-05-09T03:31:17.984Z,11.5
2024-05-09T03:38:19.216Z,11.6
2024-05-09T03:45:27.549Z,11.5
2024-05-09T03:53:23.870Z,11.5
2024-05-09T04:01:05.040Z,11.6
2024-05-09T04:09:35.350Z,11.4
2024-05-09T04:17:04.414Z,11.5
2024-05-09T04:25:10.055Z,11.5
2024-05-09T04:31:56.501Z,11.6
2024-05-09T04:38:49.208Z,11.7
2024-05-09T04:45:51.338Z,11.7
2024-05-09T04:53:01.864Z,12
2024-05-09T05:00:43.273Z,11.9
2024-05-09T05:07:47.248Z,12.2
2024-05-09T05:15:05.710Z,12.2
2024-05-09T05:22:06.379Z,12.1
2024-05-09T05:28:57.699Z,12.3
2024-05-09T05:35:58.915Z,12.4
2024-05-09T05:43:18.359Z,12.7
2024-05-09T05:50:07.062Z,12.9
2024-05-09T05:57:20.658Z,12.9
2024-05-09T06:04:18.595Z,13.2
2024-05-09T06:11:10.498Z,13.3
2024-05-09T06:18:38.475Z,13.6
2024-05-09T06:25:59.052Z,13.6
2024-05-09T06:33:02.589Z,13.1
2024-05-09T06:39:56.693Z,13.8
2024-05-09T06:47:12.519Z,13.4
2024-05-09T06:54:14.180Z,13.5
2024-05-09T07:01:10.680Z,14
2024-05-09T07:08:12.466Z,14.1
2024-05-09T07:15:18.659Z,14.3
2024-05-09T07:22:24.332Z,14.4
2024-05-09T07:31:26.116Z,13.9
2024-05-09T07:38:23.136Z,14.5
2024-05-09T07:45:44.899Z,14.8
2024-05-09T07:59:17.934Z,14.6
2024-05-09T08:06:24.219Z,15.2
2024-05-09T08:13:38.361Z,14.9
2024-05-09T08:20:30.575Z,14.9
2024-05-09T08:27:21.330Z,15.1
2024-05-09T08:34:29.292Z,15.3
2024-05-09T08:41:51.156Z,15.9
2024-05-09T08:48:51.847Z,15.7
2024-05-09T08:56:00.754Z,16
2024-05-09T09:02:47.796Z,16.3
2024-05-09T09:09:44.325Z,16.6
2024-05-09T09:16:52.793Z,16.6
2024-05-09T09:23:53.283Z,17
2024-05-09T09:30:49.562Z,17.2
2024-05-09T09:37:53.304Z,17.4
2024-05-09T09:45:04.048Z,17.7
2024-05-09T09:52:11.052Z,17.8
2024-05-09T09:59:18.459Z,17.9
2024-05-09T10:06:16.857Z,18.3
2024-05-09T10:13:13.502Z,18
2024-05-09T10:19:41.893Z,18.3
2024-05-09T10:26:43.388Z,18.8
2024-05-09T10:33:36.843Z,19.2
2024-05-09T10:40:25.799Z,19.2
2024-05-09T10:47:02.197Z,19.1
2024-05-09T10:54:11.581Z,19
2024-05-09T11:00:55.264Z,18.9
2024-05-09T11:07:49.573Z,19.1
2024-05-09T11:14:41.380Z,19.5
2024-05-09T11:21:31.449Z,19.6
2024-05-09T11:28:30.184Z,19.5
2024-05-09T11:35:33.807Z,19.5
2024-05-09T11:42:28.255Z,20.2
2024-05-09T11:49:45.195Z,20
2024-05-09T11:57:05.420Z,20.1
2024-05-09T12:04:12.053Z,20.5
2024-05-09T12:11:30.290Z,20.8
2024-05-09T12:18:35.932Z,20.8
2024-05-09T12:26:15.557Z,20.3
2024-05-09T12:33:51.144Z,20.5
2024-05-09T12:41:20.115Z,21.3
2024-05-09T12:48:45.078Z,20.8
2024-05-09T12:56:03.205Z,21.8
2024-05-09T13:02:55.144Z,21.3
2024-05-09T13:09:52.705Z,21.2
2024-05-09T13:17:05.285Z,21.7
2024-05-09T13:24:10.229Z,21.5
2024-05-09T13:31:20.179Z,21.5
2024-05-09T13:38:23.245Z,21.5
2024-05-09T13:45:17.704Z,21.5
2024-05-09T13:52:25.250Z,21.6
2024-05-09T13:59:31.691Z,21.5
2024-05-09T14:07:05.521Z,21
2024-05-09T14:14:17.934Z,21
2024-05-09T14:21:28.424Z,21.2
2024-05-09T14:28:29.268Z,21.4
2024-05-09T14:35:21.084Z,21.7
2024-05-09T14:42:26.295Z,21.4
2024-05-09T14:49:33.126Z,21.1
2024-05-09T14:56:52.234Z,21.1
2024-05-09T15:03:53.568Z,21.2
2024-05-09T15:10:52.477Z,21.4
2024-05-09T15:18:08.469Z,21.6
2024-05-09T15:25:11.846Z,21.8
2024-05-09T15:32:07.212Z,21.5
2024-05-09T15:39:00.911Z,21.4
2024-05-09T15:45:54.083Z,21.5
2024-05-09T15:52:50.841Z,21.5
2024-05-09T16:00:25.225Z,21.4
2024-05-09T16:07:30.551Z,21.4
2024-05-09T16:14:40.585Z,21.5
2024-05-09T16:21:33.765Z,21.4
2024-05-09T16:28:38.114Z,21.5
2024-05-09T16:35:31.780Z,21.3
2024-05-09T16:42:28.176Z,21.2
2024-05-09T16:49:24.580Z,21.3
2024-05-09T16:56:14.904Z,21.3
2024-05-09T17:03:16.961Z,21.3
2024-05-09T17:10:22.158Z,21.1
2024-05-09T17:17:34.342Z,20.9
2024-05-09T17:24:41.906Z,20.9
2024-05-09T17:31:42.013Z,20.7
2024-05-09T17:38:40.652Z,20.6
2024-05-09T17:45:29.849Z,20.5
2024-05-09T17:52:35.171Z,20.8
2024-05-09T17:59:37.598Z,20.8
2024-05-09T18:07:04.781Z,20.7
2024-05-09T18:14:06.539Z,20.6
2024-05-09T18:21:04.905Z,20.2
2024-05-09T18:28:04.665Z,20
2024-05-09T18:35:04.708Z,19.7
2024-05-09T18:42:18.228Z,19.6
2024-05-09T18:49:25.915Z,19.7
2024-05-09T18:56:43.607Z,19.7
2024-05-09T19:03:37.771Z,19.3
2024-05-09T19:10:34.128Z,19.4
2024-05-09T19:17:37.934Z,19.6
2024-05-09T19:24:33.239Z,19.7
2024-05-09T19:31:33.439Z,19.3
2024-05-09T19:38:34.890Z,19.1
2024-05-09T19:45:30.614Z,19
2024-05-09T19:52:29.186Z,19
2024-05-09T19:59:22.980Z,18.6
2024-05-09T20:06:24.547Z,18.5
2024-05-09T20:13:18.569Z,18.4
2024-05-09T20:20:35.823Z,18.1
2024-05-09T20:27:44.525Z,17.9
2024-05-09T20:34:42.444Z,17.9
2024-05-09T20:41:58.584Z,17.8
2024-05-09T20:49:00.784Z,17.3
2024-05-09T20:56:02.484Z,17.4
2024-05-09T21:03:02.346Z,17.5
2024-05-09T21:10:22.324Z,17.3
2024-05-09T21:17:21.780Z,16.7
2024-05-09T21:24:17.696Z,17
2024-05-09T21:31:15.728Z,16.9
2024-05-09T21:38:15.547Z,16.5
2024-05-09T21:45:30.502Z,16.9
2024-05-09T21:52:30.295Z,16.6
2024-05-09T21:59:27.638Z,16.4
2024-05-09T22:06:39.224Z,16.2
2024-05-09T22:13:41.189Z,16.2
2024-05-09T22:20:35.527Z,15.8
2024-05-09T22:27:32.680Z,15.3
2024-05-09T22:34:42.799Z,15
2024-05-09T22:41:40.805Z,15.3
2024-05-09T22:48:37.079Z,15.5
2024-05-09T22:55:35.714Z,15.5
2024-05-09T23:02:34.229Z,15.1
2024-05-09T23:09:27.914Z,15.1
2024-05-09T23:16:43.528Z,15
2024-05-09T23:23:36.670Z,15.2
2024-05-09T23:30:35.983Z,15
2024-05-09T23:37:52.322Z,15.1
2024-05-09T23:44:46.666Z,15.1
2024-05-09T23:51:42.576Z,15
2024-05-09T23:58:47.389Z,14.9
